Suula — OJKZ — position and weather

sailwx.info

Track history (hours):
 
Tides and Currents Weather Stations Pressure Air Temp Water Temp Dewpoint Dewpoint Depression Visibility Wind Speed Wind Dir Waves Ship Positions

Suula

Last reported at 2014-Aug-30 09:33 UTC. Time now 2014-Sep-01 13:45 UTC.
Position N 59°45' E 024°39'.

Length 140 m; draft 6.5 m.

Type: Tanker. MMSI: 230956996.

Date/timePositionNaut miles runAvg speedWind from/ knotsBaromVisibWave heightAir tempDewpointWater temp
2014-Aug-30 09:33N 59°45' E 024°39'1515.0
2014-Aug-30 08:33N 59°42' E 024°10'1515.2
2014-Aug-30 07:33N 59°37' E 023°41'21014.8
2014-Aug-29 17:23N 57°47' E 017°58'1415.1
2014-Aug-29 16:26N 57°40' E 017°35'1315.2
2014-Aug-29 15:33N 57°33' E 017°13'1514.7
2014-Aug-29 14:33N 57°23' E 016°54'1514.6
2014-Aug-29 13:34N 57°09' E 016°47'1514.9
2014-Aug-29 12:34N 56°55' E 016°35'1412.7
2014-Aug-29 11:30N 56°43' E 016°26'4 3.4
2014-Aug-29 10:23N 56°39' E 016°23'0 0.0
2014-Aug-29 09:32N 56°39' E 016°23'0 0.0
2014-Aug-29 07:32N 56°39' E 016°23'0 0.0
2014-Aug-29 06:29N 56°39' E 016°23'58 8.3
2014-Aug-28 23:31N 55°45' E 015°46'1515.6
2014-Aug-28 22:33N 55°38' E 015°23'1514.6
2014-Aug-28 21:32N 55°31' E 015°00'1414.5
2014-Aug-28 20:34N 55°24' E 014°38'1514.8
2014-Aug-28 19:33N 55°12' E 014°22'1414.3
2014-Aug-28 18:34N 55°11' E 013°57'1615.9
2014-Aug-28 17:33N 55°12' E 013°29'1616.0
2014-Aug-28 16:33N 55°14' E 013°01'1414.2
2014-Aug-28 15:34N 55°19' E 012°38'1313.4
2014-Aug-28 14:33N 55°32' E 012°46'1010.4
2014-Aug-28 13:33N 55°38' E 013°01'1 0.5
2014-Aug-28 12:31N 55°38' E 013°01'0 0.0
2014-Aug-28 11:31N 55°38' E 013°01'0 0.0
2014-Aug-28 10:31N 55°38' E 013°01'0 0.0
2014-Aug-28 09:31N 55°38' E 013°01'0 0.0
2014-Aug-28 08:31N 55°38' E 013°01'0 0.0
2014-Aug-28 07:31N 55°38' E 013°01'0 0.0
2014-Aug-28 06:31N 55°38' E 013°01'0 0.0
2014-Aug-28 05:31N 55°38' E 013°01'0 0.0
2014-Aug-28 04:31N 55°38' E 013°01'0 0.0
2014-Aug-28 03:31N 55°38' E 013°01'1 1.1
2014-Aug-28 02:33N 55°39' E 012°60'9 9.1
2014-Aug-28 01:33N 55°33' E 012°47'1111.1
2014-Aug-28 00:33N 55°23' E 012°41'1211.6
2014-Aug-27 23:34N 55°16' E 012°58'1413.7
2014-Aug-27 22:33N 55°15' E 013°22'1414.4
2014-Aug-27 21:34N 55°15' E 013°47'1514.5
2014-Aug-27 20:34N 55°14' E 014°12'1515.0
2014-Aug-27 19:33N 55°24' E 014°31'1514.6
2014-Aug-27 18:33N 55°32' E 014°53'1514.8
2014-Aug-27 17:33N 55°39' E 015°16'34914.5
2014-Aug-26 17:28N 59°37' E 023°13'1415.0
2014-Aug-26 16:33N 59°41' E 023°39'1514.9
2014-Aug-26 15:33N 59°45' E 024°07'1514.6
2014-Aug-26 14:32N 59°49' E 024°35'37 1.0
2014-Aug-25 03:14N 60°10' E 025°36'9 0.3
2014-Aug-23 21:15N 60°19' E 025°33'0 0.0
2014-Aug-23 20:21N 60°19' E 025°33'  
2014-Aug-21 03:32N 59°38' E 023°44'  
Track history (hours):
 
Tides and Currents Weather Stations Pressure Air Temp Water Temp Dewpoint Dewpoint Depression Visibility Wind Speed Wind Dir Waves Ship Positions

Suula

Last reported at 2014-Aug-30 09:33 UTC. Time now 2014-Sep-01 13:45 UTC.
Position N 59°45' E 024°39'.

Length 140 m; draft 6.5 m.

Type: Tanker. MMSI: 230956996.

Date/timePositionNaut miles runAvg speedWind from/ knotsBaromVisibWave heightAir tempDewpointWater temp
2014-Aug-30 09:33N 59°45' E 024°39'1515.0
2014-Aug-30 08:33N 59°42' E 024°10'1515.2
2014-Aug-30 07:33N 59°37' E 023°41'21014.8
2014-Aug-29 17:23N 57°47' E 017°58'1415.1
2014-Aug-29 16:26N 57°40' E 017°35'1315.2
2014-Aug-29 15:33N 57°33' E 017°13'1514.7
2014-Aug-29 14:33N 57°23' E 016°54'1514.6
2014-Aug-29 13:34N 57°09' E 016°47'1514.9
2014-Aug-29 12:34N 56°55' E 016°35'1412.7
2014-Aug-29 11:30N 56°43' E 016°26'4 3.4
2014-Aug-29 10:23N 56°39' E 016°23'0 0.0
2014-Aug-29 09:32N 56°39' E 016°23'0 0.0
2014-Aug-29 07:32N 56°39' E 016°23'0 0.0
2014-Aug-29 06:29N 56°39' E 016°23'58 8.3
2014-Aug-28 23:31N 55°45' E 015°46'1515.6
2014-Aug-28 22:33N 55°38' E 015°23'1514.6
2014-Aug-28 21:32N 55°31' E 015°00'1414.5
2014-Aug-28 20:34N 55°24' E 014°38'1514.8
2014-Aug-28 19:33N 55°12' E 014°22'1414.3
2014-Aug-28 18:34N 55°11' E 013°57'1615.9
2014-Aug-28 17:33N 55°12' E 013°29'1616.0
2014-Aug-28 16:33N 55°14' E 013°01'1414.2
2014-Aug-28 15:34N 55°19' E 012°38'1313.4
2014-Aug-28 14:33N 55°32' E 012°46'1010.4
2014-Aug-28 13:33N 55°38' E 013°01'1 0.5
2014-Aug-28 12:31N 55°38' E 013°01'0 0.0
2014-Aug-28 11:31N 55°38' E 013°01'0 0.0
2014-Aug-28 10:31N 55°38' E 013°01'0 0.0
2014-Aug-28 09:31N 55°38' E 013°01'0 0.0
2014-Aug-28 08:31N 55°38' E 013°01'0 0.0
2014-Aug-28 07:31N 55°38' E 013°01'0 0.0
2014-Aug-28 06:31N 55°38' E 013°01'0 0.0
2014-Aug-28 05:31N 55°38' E 013°01'0 0.0
2014-Aug-28 04:31N 55°38' E 013°01'0 0.0
2014-Aug-28 03:31N 55°38' E 013°01'1 1.1
2014-Aug-28 02:33N 55°39' E 012°60'9 9.1
2014-Aug-28 01:33N 55°33' E 012°47'1111.1
2014-Aug-28 00:33N 55°23' E 012°41'1211.6
2014-Aug-27 23:34N 55°16' E 012°58'1413.7
2014-Aug-27 22:33N 55°15' E 013°22'1414.4
2014-Aug-27 21:34N 55°15' E 013°47'1514.5
2014-Aug-27 20:34N 55°14' E 014°12'1515.0
2014-Aug-27 19:33N 55°24' E 014°31'1514.6
2014-Aug-27 18:33N 55°32' E 014°53'1514.8
2014-Aug-27 17:33N 55°39' E 015°16'34914.5
2014-Aug-26 17:28N 59°37' E 023°13'1415.0
2014-Aug-26 16:33N 59°41' E 023°39'1514.9
2014-Aug-26 15:33N 59°45' E 024°07'1514.6
2014-Aug-26 14:32N 59°49' E 024°35'37 1.0
2014-Aug-25 03:14N 60°10' E 025°36'9 0.3
2014-Aug-23 21:15N 60°19' E 025°33'0 0.0
2014-Aug-23 20:21N 60°19' E 025°33'  
2014-Aug-21 03:32N 59°38' E 023°44'  

Dump ship's entire track history